Pagina principale
METAR-TAF:

METAR-TAF

Aeroporti :

Aeroporto di Stoccolma-Arlanda

Stoccolma-Arlanda, Svezia

latitudine: 59-39N, longitudine: 017-57E, altezza: 38 m

Osservazione

Il bollettino è stato emesso 36 minuti fa, alle 22:20 UTC
Vento 5 kt da sud
Temperature 13°C
Umidità 94%
Pressione 1014 hPa
Visibilità 10 km o più
nessuna nube inferiore a 1500 m e nessun cumulonembo

METAR: ESSA 152220Z 17005KT CAVOK 13/12 Q1014 NOSIG

Ora: 00:56 (22:56 UTC)

Previsione

Il bollettino è stato emesso 5 ore e 26 minuti fa, alle 17:30 UTC
Previsione valida dal 15 alle 18 UTC al 16 alle 18 UTC
Vento 4 kt da sud/sud-est
Visibilità 10 km o più
nessuna nube inferiore a 1500 m e nessun cumulonembo
Evoluzione graduale
dal 16 alle 07 UTC al 16 alle 09 UTC
Vento 10 kt da sud-ovest

TAF: ESSA 151730Z 1518/1618 16004KT CAVOK BECMG 1607/1609 22010KT

Osservazioni e previsioni meteorologiche di più di 4000 aeroporti (messaggi METAR e TAF).

Le stazioni disponibili sono rappresentate dai dischi gialli e rossi sulla carta.

Puntare il mouse per vedere il nome della stazione.

Clicca sopra per visualizzare le osservazioni e previsioni meteorologiche.

Per cambiare la mappa : fare clic sui pulsanti verdi con una croce nera per ingrandire, il pulsante verde con un trattino per diminuire, o sulla freccia verde per le mappe adiacenti.


METAR-TAF: